Kezdőlap
METAR-TAF:

METAR-TAF

Repülőterek :

Chișinăui nemzetközi repülőtér

Chișinău, Moldova

földrajzi szélesség: 46-55-40N, földrajzi hosszúság: 028-55-51E, magasság: 122 m

Jelenlegi meteorológiai megfigyelések

A jelentés 35 perccel ezelõtt készült, 23:30 UTC
Nyugat-délnyugati szél 4 kt
Hőmérséklet 12°C
Páratartalom 100%
Légköri nyomás 1016 hPa
Látótávolság 10 km, vagy több
felhőtlen 1500 m magasságban, és nincs gomolyfelhõ

METAR: LUKK 242330Z 25004KT CAVOK 12/12 Q1016 R08/290150 NOSIG

Idő: 02:05 (00:05 UTC)

Előrejelzés

A jelentés 45 perccel ezelõtt készült, 23:20 UTC
Az előrejelzés 25-én 00 óra UTC és 25-én 24 óra UTC között érvényes
Északi szél 4 kt
Látótávolság 10 km, vagy több
felhőtlen 1500 m magasságban, és nincs gomolyfelhõ
25-én 08 óra UTC és 25-én 10 óra UTC között fokozatosan kialakuló
Kelet-északkeleti szél 8 kt

TAF: LUKK 242320Z 2500/2524 01004KT CAVOK BECMG 2508/2510 07008KT

Meteorológiai megfigyelések és előrejelzések több, mint 4000 repülőtéren (METAR és TAF jelentéseket).

A térképen piros és sárga pontok jelzik az elérhető meteorológiai állomásokat.

Mozgassa az egeret a pont fölött, hogy megjelenjen az állomás neve.

Azután kattintson az időjárási megfigyelések és előrejelzések megtekintéséhez.

A térkép megváltoztatása: kattintson a fekete keresztel jelölt zöld gombra ráközelítéshez, a vonallal jelölt zöld gombra távolításhoz, vagy a zöld nyilakra a szomszédos térképek eléréséhez.


METAR-TAF: